Terminal Aerodrome Forecast
Issued by NWS

Home | Current Version | Previous Version | Text Only | Print | Product List | Glossary On
Versions: 1 2 3 4 5 6 7 8 9 10 11 12 13 14 15 16
426
FTUS43 KILX 062320
TAFBMI
TAF
KBMI 062320Z 0700/0724 26010KT P6SM SKC
     FM070800 26008KT P6SM SCT120 WS020/28040KT
     FM071300 28012G22KT P6SM SCT120
     FM071800 30012G18KT P6SM VCTS BKN045CB OVC120
     FM072100 35012KT P6SM VCTS BKN040CB OVC120=

USA.gov is the U.S. government's official web portal to all federal, state and local government web resources and services.